createdAt,value
2022-11-24T00:01:25.247Z,85.55
2022-11-24T00:06:24.737Z,85.53
2022-11-24T00:11:26.227Z,85.52
2022-11-24T00:16:28.250Z,85.55
2022-11-24T00:21:30.131Z,85.55
2022-11-24T00:26:32.235Z,85.54
2022-11-24T00:31:34.623Z,85.52
2022-11-24T00:36:35.744Z,85.53
2022-11-24T00:41:35.783Z,85.54
2022-11-24T00:46:35.611Z,85.56
2022-11-24T00:51:35.437Z,85.56
2022-11-24T00:56:35.115Z,85.53
2022-11-24T01:01:34.990Z,85.56
2022-11-24T01:06:36.033Z,85.61
2022-11-24T01:11:51.179Z,85.62
2022-11-24T01:16:50.597Z,85.64
2022-11-24T01:21:50.359Z,85.62
2022-11-24T01:26:49.972Z,85.62
2022-11-24T01:31:49.312Z,85.61
2022-11-24T01:36:49.029Z,85.65
2022-11-24T01:41:48.027Z,85.65
2022-11-24T01:46:50.597Z,85.67
2022-11-24T01:51:57.087Z,85.64
2022-11-24T01:57:00.155Z,85.66
2022-11-24T02:02:01.889Z,85.65
2022-11-24T02:07:04.905Z,85.72
2022-11-24T02:12:05.438Z,85.65
2022-11-24T02:17:04.866Z,85.70
2022-11-24T02:22:05.349Z,85.69
2022-11-24T02:27:04.191Z,85.71
2022-11-24T02:32:08.963Z,85.78
2022-11-24T02:37:08.431Z,85.85
2022-11-24T02:42:11.916Z,85.89
2022-11-24T02:47:39.791Z,85.87
2022-11-24T02:52:39.369Z,85.83
2022-11-24T02:57:38.660Z,85.81
2022-11-24T03:02:37.852Z,85.84
2022-11-24T03:07:36.466Z,85.89
2022-11-24T03:12:35.194Z,85.97
2022-11-24T03:17:34.620Z,86.00
2022-11-24T03:22:33.574Z,86.01
2022-11-24T03:27:33.569Z,85.98
2022-11-24T03:32:32.549Z,85.98
2022-11-24T03:37:31.797Z,86.01
2022-11-24T03:42:31.741Z,86.00
2022-11-24T03:47:30.394Z,86.00
2022-11-24T03:52:29.979Z,86.00
2022-11-24T03:57:29.134Z,86.01
2022-11-24T04:02:28.029Z,86.03
2022-11-24T04:07:27.581Z,86.07
2022-11-24T04:12:44.463Z,86.06
2022-11-24T04:17:44.470Z,86.04
2022-11-24T04:22:44.460Z,86.04
2022-11-24T04:27:44.462Z,86.05
2022-11-24T04:32:44.085Z,86.08
2022-11-24T04:37:43.554Z,86.10
2022-11-24T04:42:43.123Z,86.10
2022-11-24T04:47:42.796Z,86.09
2022-11-24T04:52:42.131Z,86.09
2022-11-24T04:57:40.779Z,86.07
2022-11-24T05:02:40.248Z,86.08
2022-11-24T05:07:39.913Z,86.08
2022-11-24T05:12:39.889Z,86.10
2022-11-24T05:17:41.549Z,86.11
2022-11-24T05:22:41.102Z,86.12
2022-11-24T05:27:40.584Z,86.09
2022-11-24T05:32:40.091Z,86.09
2022-11-24T05:37:39.253Z,86.11
2022-11-24T05:42:47.852Z,86.10
2022-11-24T05:47:47.984Z,86.09
2022-11-24T05:52:47.180Z,86.10
2022-11-24T05:57:46.625Z,86.10
2022-11-24T06:02:45.524Z,86.10
2022-11-24T06:07:44.525Z,86.10
2022-11-24T06:12:44.021Z,86.10
2022-11-24T06:17:43.535Z,86.10
2022-11-24T06:22:42.959Z,86.11
2022-11-24T06:27:42.233Z,86.13
2022-11-24T06:32:49.286Z,86.13
2022-11-24T06:37:49.620Z,86.17
2022-11-24T06:42:55.263Z,86.17
2022-11-24T06:47:56.364Z,86.16
2022-11-24T06:53:20.586Z,86.18
2022-11-24T06:58:19.970Z,86.20
2022-11-24T07:03:22.829Z,86.21
2022-11-24T07:08:21.922Z,86.19
2022-11-24T07:13:21.166Z,86.22
2022-11-24T07:18:20.074Z,86.26
2022-11-24T07:23:19.266Z,86.26
2022-11-24T07:28:17.691Z,86.21
2022-11-24T07:33:20.865Z,86.24
2022-11-24T07:38:19.832Z,86.21
2022-11-24T07:43:21.605Z,86.22
2022-11-24T07:48:21.001Z,86.12
2022-11-24T07:53:20.651Z,86.07
2022-11-24T07:58:19.714Z,86.07
2022-11-24T08:03:19.121Z,86.09
2022-11-24T08:08:18.525Z,86.04
2022-11-24T08:13:17.216Z,86.05
2022-11-24T08:18:16.330Z,86.04
2022-11-24T08:23:14.594Z,86.03
2022-11-24T08:28:13.927Z,86.06
2022-11-24T08:33:13.026Z,86.01
2022-11-24T08:38:11.660Z,85.97
2022-11-24T08:43:10.637Z,85.94
2022-11-24T08:48:10.238Z,85.93
2022-11-24T08:53:09.053Z,85.94
2022-11-24T08:58:08.371Z,85.90
2022-11-24T09:03:07.445Z,85.87
2022-11-24T09:08:06.834Z,85.85
2022-11-24T09:13:06.225Z,85.83
2022-11-24T09:18:05.516Z,85.78
2022-11-24T09:23:04.627Z,85.77
2022-11-24T09:28:03.802Z,85.70
2022-11-24T09:33:03.425Z,85.60
2022-11-24T09:38:02.763Z,85.57
2022-11-24T09:43:10.529Z,85.62
2022-11-24T09:48:18.486Z,85.61
2022-11-24T09:53:28.566Z,85.53
2022-11-24T09:58:41.761Z,85.55
2022-11-24T10:03:45.510Z,85.51
2022-11-24T10:09:11.605Z,85.46
2022-11-24T10:14:55.280Z,85.39
2022-11-24T10:20:04.534Z,85.28
2022-11-24T10:25:19.986Z,85.20
2022-11-24T10:30:24.951Z,85.10
2022-11-24T10:35:29.490Z,85.05
2022-11-24T10:46:11.036Z,84.90
2022-11-24T10:51:43.088Z,84.83
2022-11-24T10:56:46.534Z,84.79
2022-11-24T11:01:45.430Z,84.67
2022-11-24T11:06:46.923Z,84.60
2022-11-24T11:11:48.488Z,84.47
2022-11-24T11:16:54.664Z,84.36
2022-11-24T11:22:04.978Z,84.20
2022-11-24T11:27:18.456Z,84.14
2022-11-24T11:37:47.101Z,84.06
2022-11-24T11:43:02.559Z,83.95
2022-11-24T11:48:26.482Z,83.90
2022-11-24T11:53:37.423Z,83.65
2022-11-24T11:59:26.077Z,83.56
2022-11-24T12:04:43.120Z,83.57
2022-11-24T12:10:05.123Z,83.57
2022-11-24T12:15:15.591Z,83.60
2022-11-24T12:20:43.686Z,83.56
2022-11-24T12:25:49.715Z,83.57
2022-11-24T12:31:05.819Z,83.56
2022-11-24T12:36:17.944Z,83.54
2022-11-24T12:41:42.663Z,83.54
2022-11-24T12:46:54.182Z,83.54
2022-11-24T12:52:01.390Z,83.50
2022-11-24T12:57:10.780Z,83.44
2022-11-24T13:02:25.029Z,83.47
2022-11-24T13:07:39.173Z,83.44
2022-11-24T13:12:56.381Z,83.43
2022-11-24T13:18:08.609Z,83.37
2022-11-24T13:23:28.572Z,83.33
2022-11-24T13:29:30.882Z,83.31
2022-11-24T13:35:13.556Z,83.23
2022-11-24T13:41:06.218Z,83.13
2022-11-24T13:46:05.123Z,83.08
2022-11-24T13:51:27.938Z,83.00
2022-11-24T13:56:32.306Z,82.96
2022-11-24T14:01:34.376Z,82.91
2022-11-24T14:06:39.496Z,82.85
2022-11-24T14:11:38.403Z,82.76
2022-11-24T14:16:37.145Z,82.80
2022-11-24T14:21:41.647Z,82.78
2022-11-24T14:26:43.127Z,82.77
2022-11-24T14:31:42.888Z,82.77
2022-11-24T14:36:42.371Z,82.48
2022-11-24T14:41:42.304Z,82.41
2022-11-24T14:46:42.225Z,82.41
2022-11-24T14:51:47.768Z,82.50
2022-11-24T14:57:00.502Z,82.58
2022-11-24T15:02:01.208Z,82.61
2022-11-24T15:07:20.054Z,82.68
2022-11-24T15:12:29.368Z,82.68
2022-11-24T15:17:32.195Z,82.67
2022-11-24T15:22:45.589Z,82.78
2022-11-24T15:27:44.851Z,82.83
2022-11-24T15:32:54.384Z,82.88
2022-11-24T15:37:53.603Z,82.88
2022-11-24T15:42:56.078Z,82.82
2022-11-24T15:47:55.328Z,82.88
2022-11-24T15:52:54.581Z,82.95
2022-11-24T15:57:53.363Z,83.02
2022-11-24T16:02:52.879Z,83.10
2022-11-24T16:07:52.768Z,83.17
2022-11-24T16:12:52.331Z,83.26
2022-11-24T16:17:51.734Z,83.33
2022-11-24T16:22:50.758Z,83.40
2022-11-24T16:27:50.155Z,83.47
2022-11-24T16:32:50.537Z,83.49
2022-11-24T16:37:49.741Z,83.56
2022-11-24T16:42:48.870Z,83.60
2022-11-24T16:47:48.304Z,83.66
2022-11-24T16:52:48.679Z,83.71
2022-11-24T16:57:48.822Z,83.76
2022-11-24T17:02:48.529Z,83.81
2022-11-24T17:07:49.378Z,83.86
2022-11-24T17:12:48.350Z,83.90
2022-11-24T17:18:16.246Z,83.96
2022-11-24T17:23:09.322Z,84.00
2022-11-24T17:28:09.292Z,84.05
2022-11-24T17:33:08.114Z,84.07
2022-11-24T17:38:08.440Z,84.12
2022-11-24T17:43:08.634Z,84.15
2022-11-24T17:48:08.595Z,84.19
2022-11-24T17:53:07.784Z,84.23
2022-11-24T17:58:06.778Z,84.27
2022-11-24T18:03:05.966Z,84.31
2022-11-24T18:08:06.504Z,84.33
2022-11-24T18:13:05.764Z,84.41
2022-11-24T18:18:05.399Z,84.44
2022-11-24T18:23:06.074Z,84.40
2022-11-24T18:28:05.973Z,84.48
2022-11-24T18:33:05.120Z,84.51
2022-11-24T18:38:04.532Z,84.59
2022-11-24T18:43:03.807Z,84.60
2022-11-24T18:48:03.249Z,84.70
2022-11-24T18:53:03.364Z,84.75
2022-11-24T18:58:02.390Z,84.76
2022-11-24T19:03:01.718Z,84.84
2022-11-24T19:08:02.085Z,84.93
2022-11-24T19:13:36.266Z,85.05
2022-11-24T19:18:35.951Z,85.06
2022-11-24T19:23:35.502Z,85.09
2022-11-24T19:28:35.184Z,85.17
2022-11-24T19:33:35.379Z,85.13
2022-11-24T19:38:36.913Z,85.21
2022-11-24T19:43:38.173Z,85.26
2022-11-24T19:48:40.293Z,85.36
2022-11-24T19:53:39.870Z,85.33
2022-11-24T19:58:39.509Z,85.40
2022-11-24T20:03:39.377Z,85.50
2022-11-24T20:08:40.231Z,85.61
2022-11-24T20:13:41.884Z,85.69
2022-11-24T20:18:44.085Z,85.75
2022-11-24T20:23:44.780Z,85.81
2022-11-24T20:28:45.005Z,85.97
2022-11-24T20:33:45.031Z,86.02
2022-11-24T20:38:46.138Z,86.04
2022-11-24T20:43:59.957Z,86.07
2022-11-24T20:49:01.325Z,86.09
2022-11-24T20:54:03.806Z,86.16
2022-11-24T20:59:11.713Z,86.12
2022-11-24T21:04:14.329Z,86.15
2022-11-24T21:09:14.111Z,86.25
2022-11-24T21:14:13.949Z,86.34
2022-11-24T21:19:17.752Z,86.38
2022-11-24T21:24:21.854Z,86.36
2022-11-24T21:29:23.681Z,86.39
2022-11-24T21:34:23.813Z,86.40
2022-11-24T21:39:23.243Z,86.40
2022-11-24T21:44:23.238Z,86.41
2022-11-24T21:49:22.930Z,86.44
2022-11-24T21:54:23.773Z,86.47
2022-11-24T21:59:24.767Z,86.48
2022-11-24T22:04:24.157Z,86.52
2022-11-24T22:09:23.851Z,86.46
2022-11-24T22:14:23.054Z,86.39
2022-11-24T22:19:22.432Z,86.41
2022-11-24T22:24:26.961Z,86.44
2022-11-24T22:29:26.760Z,86.52
2022-11-24T22:34:25.663Z,86.37
2022-11-24T22:39:24.985Z,86.35
2022-11-24T22:44:24.421Z,86.30
2022-11-24T22:49:24.066Z,86.22
2022-11-24T22:54:23.653Z,86.20
2022-11-24T22:59:22.260Z,86.22
2022-11-24T23:04:21.466Z,86.46
2022-11-24T23:09:24.673Z,86.45
2022-11-24T23:14:24.242Z,86.51
2022-11-24T23:19:23.541Z,86.52
2022-11-24T23:24:22.984Z,86.47
2022-11-24T23:29:22.564Z,86.46
2022-11-24T23:34:24.104Z,86.59
2022-11-24T23:39:23.838Z,86.66
2022-11-24T23:44:23.334Z,86.44
2022-11-24T23:49:22.771Z,86.47
2022-11-24T23:54:21.726Z,86.63
2022-11-24T23:59:20.720Z,86.61
